航空気象通報

ウインドサーファーのための航空気象通報による風予報です。

1/5-1/7の航空気象通報

2019年01月05日 23時54分16秒 | お天気
羽田空港
TAF RJTT 051105Z 0512/0618 35020KT 9999 FEW030
TEMPO 0512/0517 35022G32KT
BECMG 0603/0606 02010KT
日本時間5日21時-6日12時:350度から20ノットの風
但し、5日21時-6日02時の間:時々350度から22ノット、突風32ノット
12-15時:風が変化
15時-7日03時:020度から10ノットの風


静岡空港
TAF RJNS 051105Z 0512/0618 27020KT 9999 FEW030
BECMG 0518/0520 32006KT
BECMG 0600/0603 08004KT
BECMG 0609/0612 31006KT
日本時間5日21時-6日03時:270度から20ノットの風
03-05時:風が変化
05-09時:320度から6ノットの風
09-12時:風が変化
12-18時:080度から4ノットの風
18-21時:風が変化
21時-7日03時:310度から6ノットの風


福岡空港
TAF RJFF 051106Z 0512/0618 14004KT 9999 FEW040
BECMG 0603/0606 31007KT
BECMG 0615/0618 15005KT
日本時間5日21時-6日12時:140度から4ノットの風
12-15時:風が変化
15-24時:310度から7ノットの風
7日00-03時:風が変化
03時:150度から5ノットの風


那覇空港
TAF ROAH 051105Z 0512/0618 35010KT 9999 FEW015 BKN035
日本時間5日21時-7日03時:350度から10ノットの風


石垣空港
TAF ROIG 051107Z 0512/0618 01008KT 9999 FEW006 BKN020
日本時間5日21時-7日03時:010度から8ノットの風


マウイのカフルイ空港
PHOG 051258Z 0513/0612 14005KT P6SM FEW030 SCT050
FM052100 06018G27KT P6SM FEW030 SCT050
FM060400 07010KT P6SM FEW030 SCT050 AMD LTD TO VIS AND WIND TIL 051600
ハワイ時間5日02-11時:140度から5ノットの風
11-19時:060度から18ノット、突風27ノット
19時-6日02時:070度から10ノットの風


サイパン空港
PGSN 051134Z 0512/0612 04014KT P6SM FEW025 BKN045
マリアナ時間5日22時-6日22時:040度から14ノットの風
ジャンル:
お天気
コメント   この記事についてブログを書く
« 1/3-1/5の航空気象通報 | トップ | 1/6-1/8の航空気象通報 »
最近の画像もっと見る

コメントを投稿

ブログ作成者から承認されるまでコメントは反映されません。

お天気」カテゴリの最新記事